sensor_id;sensor_type;location;lat;lon;timestamp;P1;durP1;ratioP1;P2;durP2;ratioP2
22415;SDS011;12204;50.600;4.608;2022-12-10T00:06:25;12.07;;;6.13;;
22415;SDS011;12204;50.600;4.608;2022-12-10T00:11:32;12.45;;;6.13;;
22415;SDS011;12204;50.600;4.608;2022-12-10T00:16:36;10.82;;;6.13;;
22415;SDS011;12204;50.600;4.608;2022-12-10T00:21:40;11.80;;;6.20;;
22415;SDS011;12204;50.600;4.608;2022-12-10T00:26:47;10.55;;;6.03;;
22415;SDS011;12204;50.600;4.608;2022-12-10T00:31:51;11.82;;;6.32;;
22415;SDS011;12204;50.600;4.608;2022-12-10T00:36:54;11.25;;;6.43;;
22415;SDS011;12204;50.600;4.608;2022-12-10T00:41:59;13.18;;;5.97;;
22415;SDS011;12204;50.600;4.608;2022-12-10T00:47:04;10.90;;;6.18;;
22415;SDS011;12204;50.600;4.608;2022-12-10T00:52:08;10.20;;;6.05;;
22415;SDS011;12204;50.600;4.608;2022-12-10T00:57:14;10.52;;;5.95;;
22415;SDS011;12204;50.600;4.608;2022-12-10T01:02:17;10.85;;;6.00;;
22415;SDS011;12204;50.600;4.608;2022-12-10T01:07:24;12.15;;;6.05;;
22415;SDS011;12204;50.600;4.608;2022-12-10T01:12:29;12.32;;;6.18;;
22415;SDS011;12204;50.600;4.608;2022-12-10T01:17:32;12.15;;;6.13;;
22415;SDS011;12204;50.600;4.608;2022-12-10T01:22:36;11.27;;;6.15;;
22415;SDS011;12204;50.600;4.608;2022-12-10T01:27:45;10.88;;;6.28;;
22415;SDS011;12204;50.600;4.608;2022-12-10T01:32:48;9.82;;;5.63;;
22415;SDS011;12204;50.600;4.608;2022-12-10T01:37:52;13.73;;;6.10;;
22415;SDS011;12204;50.600;4.608;2022-12-10T01:42:57;12.15;;;6.20;;
22415;SDS011;12204;50.600;4.608;2022-12-10T01:48:01;12.63;;;5.55;;
22415;SDS011;12204;50.600;4.608;2022-12-10T01:53:08;9.53;;;5.80;;
22415;SDS011;12204;50.600;4.608;2022-12-10T01:58:15;11.05;;;5.93;;
22415;SDS011;12204;50.600;4.608;2022-12-10T02:03:25;9.98;;;5.90;;
22415;SDS011;12204;50.600;4.608;2022-12-10T02:08:41;10.65;;;5.97;;
22415;SDS011;12204;50.600;4.608;2022-12-10T02:14:08;10.13;;;5.90;;
22415;SDS011;12204;50.600;4.608;2022-12-10T02:19:22;9.87;;;5.83;;
22415;SDS011;12204;50.600;4.608;2022-12-10T02:24:46;10.52;;;6.38;;
22415;SDS011;12204;50.600;4.608;2022-12-10T02:35:03;11.23;;;5.90;;
22415;SDS011;12204;50.600;4.608;2022-12-10T02:40:15;12.50;;;6.10;;
22415;SDS011;12204;50.600;4.608;2022-12-10T02:45:29;10.40;;;5.80;;
22415;SDS011;12204;50.600;4.608;2022-12-10T02:50:35;9.88;;;5.53;;
22415;SDS011;12204;50.600;4.608;2022-12-10T02:55:47;11.32;;;5.68;;
22415;SDS011;12204;50.600;4.608;2022-12-10T03:01:16;10.93;;;5.95;;
22415;SDS011;12204;50.600;4.608;2022-12-10T03:06:34;12.25;;;5.60;;
22415;SDS011;12204;50.600;4.608;2022-12-10T03:11:44;10.85;;;6.22;;
22415;SDS011;12204;50.600;4.608;2022-12-10T03:16:55;10.27;;;5.80;;
22415;SDS011;12204;50.600;4.608;2022-12-10T03:22:02;9.50;;;5.65;;
22415;SDS011;12204;50.600;4.608;2022-12-10T03:27:09;10.00;;;5.93;;
22415;SDS011;12204;50.600;4.608;2022-12-10T03:32:17;11.93;;;6.10;;
22415;SDS011;12204;50.600;4.608;2022-12-10T03:37:25;10.75;;;5.93;;
22415;SDS011;12204;50.600;4.608;2022-12-10T03:42:30;10.63;;;6.10;;
22415;SDS011;12204;50.600;4.608;2022-12-10T03:47:35;11.30;;;6.05;;
22415;SDS011;12204;50.600;4.608;2022-12-10T03:52:39;10.32;;;5.63;;
22415;SDS011;12204;50.600;4.608;2022-12-10T03:57:43;11.00;;;5.80;;
22415;SDS011;12204;50.600;4.608;2022-12-10T04:02:48;11.95;;;6.03;;
22415;SDS011;12204;50.600;4.608;2022-12-10T04:07:52;11.00;;;6.10;;
22415;SDS011;12204;50.600;4.608;2022-12-10T04:12:56;10.13;;;6.13;;
22415;SDS011;12204;50.600;4.608;2022-12-10T04:18:18;11.30;;;6.18;;
22415;SDS011;12204;50.600;4.608;2022-12-10T04:23:22;11.70;;;6.47;;
22415;SDS011;12204;50.600;4.608;2022-12-10T04:28:43;11.00;;;6.18;;
22415;SDS011;12204;50.600;4.608;2022-12-10T04:33:50;9.98;;;6.07;;
22415;SDS011;12204;50.600;4.608;2022-12-10T04:38:53;10.02;;;5.90;;
22415;SDS011;12204;50.600;4.608;2022-12-10T04:43:57;11.95;;;6.50;;
22415;SDS011;12204;50.600;4.608;2022-12-10T04:49:02;12.00;;;6.45;;
22415;SDS011;12204;50.600;4.608;2022-12-10T04:54:07;11.23;;;6.07;;
22415;SDS011;12204;50.600;4.608;2022-12-10T04:59:11;12.10;;;6.60;;
22415;SDS011;12204;50.600;4.608;2022-12-10T05:04:17;13.48;;;6.38;;
22415;SDS011;12204;50.600;4.608;2022-12-10T05:09:22;11.07;;;6.10;;
22415;SDS011;12204;50.600;4.608;2022-12-10T05:14:26;11.50;;;6.07;;
22415;SDS011;12204;50.600;4.608;2022-12-10T05:19:31;12.88;;;6.43;;
22415;SDS011;12204;50.600;4.608;2022-12-10T05:24:34;13.00;;;6.50;;
22415;SDS011;12204;50.600;4.608;2022-12-10T05:29:39;11.57;;;6.35;;
22415;SDS011;12204;50.600;4.608;2022-12-10T05:34:44;11.65;;;6.40;;
22415;SDS011;12204;50.600;4.608;2022-12-10T05:39:48;10.98;;;6.35;;
22415;SDS011;12204;50.600;4.608;2022-12-10T05:44:52;12.13;;;6.53;;
22415;SDS011;12204;50.600;4.608;2022-12-10T05:49:57;16.42;;;7.13;;
22415;SDS011;12204;50.600;4.608;2022-12-10T05:55:00;10.63;;;6.40;;
22415;SDS011;12204;50.600;4.608;2022-12-10T06:00:04;10.82;;;6.20;;
22415;SDS011;12204;50.600;4.608;2022-12-10T06:05:14;10.55;;;6.40;;
22415;SDS011;12204;50.600;4.608;2022-12-10T06:10:19;12.63;;;6.68;;
22415;SDS011;12204;50.600;4.608;2022-12-10T06:15:22;10.10;;;6.38;;
22415;SDS011;12204;50.600;4.608;2022-12-10T06:20:27;11.73;;;6.72;;
22415;SDS011;12204;50.600;4.608;2022-12-10T06:25:31;10.77;;;6.35;;
22415;SDS011;12204;50.600;4.608;2022-12-10T06:30:35;11.35;;;6.55;;
22415;SDS011;12204;50.600;4.608;2022-12-10T06:35:40;12.43;;;6.32;;
22415;SDS011;12204;50.600;4.608;2022-12-10T06:40:44;11.45;;;6.50;;
22415;SDS011;12204;50.600;4.608;2022-12-10T06:45:48;9.95;;;6.10;;
22415;SDS011;12204;50.600;4.608;2022-12-10T06:50:53;11.05;;;5.78;;
22415;SDS011;12204;50.600;4.608;2022-12-10T06:55:58;10.27;;;5.80;;
22415;SDS011;12204;50.600;4.608;2022-12-10T07:01:03;10.60;;;6.00;;
22415;SDS011;12204;50.600;4.608;2022-12-10T07:06:09;9.85;;;5.70;;
22415;SDS011;12204;50.600;4.608;2022-12-10T07:11:15;9.93;;;5.80;;
22415;SDS011;12204;50.600;4.608;2022-12-10T07:16:21;10.13;;;5.47;;
22415;SDS011;12204;50.600;4.608;2022-12-10T07:21:30;10.33;;;5.60;;
22415;SDS011;12204;50.600;4.608;2022-12-10T07:26:38;10.48;;;5.60;;
22415;SDS011;12204;50.600;4.608;2022-12-10T07:31:45;9.80;;;5.80;;
22415;SDS011;12204;50.600;4.608;2022-12-10T07:36:52;11.82;;;5.70;;
22415;SDS011;12204;50.600;4.608;2022-12-10T07:41:56;10.25;;;5.80;;
22415;SDS011;12204;50.600;4.608;2022-12-10T07:47:02;8.95;;;5.47;;
22415;SDS011;12204;50.600;4.608;2022-12-10T07:52:08;9.45;;;5.28;;
22415;SDS011;12204;50.600;4.608;2022-12-10T07:57:12;9.32;;;5.30;;
22415;SDS011;12204;50.600;4.608;2022-12-10T08:02:16;9.35;;;5.38;;
22415;SDS011;12204;50.600;4.608;2022-12-10T08:07:22;9.40;;;5.40;;
22415;SDS011;12204;50.600;4.608;2022-12-10T08:12:26;8.70;;;5.07;;
22415;SDS011;12204;50.600;4.608;2022-12-10T08:17:29;10.05;;;5.55;;
22415;SDS011;12204;50.600;4.608;2022-12-10T08:22:34;9.55;;;5.28;;
22415;SDS011;12204;50.600;4.608;2022-12-10T08:27:39;10.52;;;4.90;;
22415;SDS011;12204;50.600;4.608;2022-12-10T08:32:43;9.95;;;4.75;;
22415;SDS011;12204;50.600;4.608;2022-12-10T08:37:48;11.90;;;5.07;;
22415;SDS011;12204;50.600;4.608;2022-12-10T08:42:51;12.05;;;5.63;;
22415;SDS011;12204;50.600;4.608;2022-12-10T08:47:58;14.90;;;7.60;;
22415;SDS011;12204;50.600;4.608;2022-12-10T08:53:04;12.75;;;8.00;;
22415;SDS011;12204;50.600;4.608;2022-12-10T08:58:09;13.23;;;7.18;;
22415;SDS011;12204;50.600;4.608;2022-12-10T09:03:13;12.00;;;6.80;;
22415;SDS011;12204;50.600;4.608;2022-12-10T09:08:18;11.00;;;6.72;;
22415;SDS011;12204;50.600;4.608;2022-12-10T09:13:22;19.38;;;7.20;;
22415;SDS011;12204;50.600;4.608;2022-12-10T09:18:26;17.13;;;7.05;;
22415;SDS011;12204;50.600;4.608;2022-12-10T09:23:31;16.30;;;6.45;;
22415;SDS011;12204;50.600;4.608;2022-12-10T09:28:36;14.70;;;6.20;;
22415;SDS011;12204;50.600;4.608;2022-12-10T09:33:41;11.48;;;6.07;;
22415;SDS011;12204;50.600;4.608;2022-12-10T09:38:47;12.90;;;5.90;;
22415;SDS011;12204;50.600;4.608;2022-12-10T09:43:55;14.10;;;5.80;;
22415;SDS011;12204;50.600;4.608;2022-12-10T09:49:08;14.70;;;6.30;;
22415;SDS011;12204;50.600;4.608;2022-12-10T09:54:28;16.00;;;6.57;;
22415;SDS011;12204;50.600;4.608;2022-12-10T09:59:36;14.02;;;5.95;;
22415;SDS011;12204;50.600;4.608;2022-12-10T10:04:45;11.63;;;6.03;;
22415;SDS011;12204;50.600;4.608;2022-12-10T10:09:50;11.40;;;5.60;;
22415;SDS011;12204;50.600;4.608;2022-12-10T10:14:59;11.75;;;5.70;;
22415;SDS011;12204;50.600;4.608;2022-12-10T10:20:17;11.77;;;5.35;;
22415;SDS011;12204;50.600;4.608;2022-12-10T10:25:23;10.75;;;5.55;;
22415;SDS011;12204;50.600;4.608;2022-12-10T10:30:27;10.05;;;5.60;;
22415;SDS011;12204;50.600;4.608;2022-12-10T10:35:32;8.98;;;5.18;;
22415;SDS011;12204;50.600;4.608;2022-12-10T10:40:48;9.88;;;5.13;;
22415;SDS011;12204;50.600;4.608;2022-12-10T10:45:56;9.48;;;5.03;;
22415;SDS011;12204;50.600;4.608;2022-12-10T10:51:07;9.35;;;4.65;;
22415;SDS011;12204;50.600;4.608;2022-12-10T10:56:23;10.55;;;4.68;;
22415;SDS011;12204;50.600;4.608;2022-12-10T11:01:43;8.80;;;4.72;;
22415;SDS011;12204;50.600;4.608;2022-12-10T11:06:50;8.93;;;4.63;;
22415;SDS011;12204;50.600;4.608;2022-12-10T11:17:12;8.45;;;4.13;;
22415;SDS011;12204;50.600;4.608;2022-12-10T11:22:23;9.15;;;4.28;;
22415;SDS011;12204;50.600;4.608;2022-12-10T11:27:35;7.77;;;4.30;;
22415;SDS011;12204;50.600;4.608;2022-12-10T11:32:58;8.38;;;4.47;;
22415;SDS011;12204;50.600;4.608;2022-12-10T11:38:23;8.82;;;4.45;;
22415;SDS011;12204;50.600;4.608;2022-12-10T11:49:22;9.35;;;4.43;;
22415;SDS011;12204;50.600;4.608;2022-12-10T11:54:46;9.27;;;4.05;;
22415;SDS011;12204;50.600;4.608;2022-12-10T12:00:17;8.02;;;4.22;;
22415;SDS011;12204;50.600;4.608;2022-12-10T12:05:28;8.13;;;4.15;;
22415;SDS011;12204;50.600;4.608;2022-12-10T12:10:54;7.30;;;3.88;;
22415;SDS011;12204;50.600;4.608;2022-12-10T12:16:25;8.18;;;4.07;;
22415;SDS011;12204;50.600;4.608;2022-12-10T12:21:34;12.52;;;4.60;;
22415;SDS011;12204;50.600;4.608;2022-12-10T12:26:40;12.65;;;6.28;;
22415;SDS011;12204;50.600;4.608;2022-12-10T12:31:54;14.98;;;7.90;;
22415;SDS011;12204;50.600;4.608;2022-12-10T12:37:04;14.88;;;7.85;;
22415;SDS011;12204;50.600;4.608;2022-12-10T12:42:14;18.13;;;9.32;;
22415;SDS011;12204;50.600;4.608;2022-12-10T12:47:29;18.10;;;9.90;;
22415;SDS011;12204;50.600;4.608;2022-12-10T12:57:54;38.78;;;11.90;;
22415;SDS011;12204;50.600;4.608;2022-12-10T13:03:19;33.55;;;11.88;;
22415;SDS011;12204;50.600;4.608;2022-12-10T13:08:41;28.55;;;11.50;;
22415;SDS011;12204;50.600;4.608;2022-12-10T13:14:09;33.88;;;11.43;;
22415;SDS011;12204;50.600;4.608;2022-12-10T13:19:29;29.42;;;11.07;;
22415;SDS011;12204;50.600;4.608;2022-12-10T13:24:44;20.75;;;8.95;;
22415;SDS011;12204;50.600;4.608;2022-12-10T13:30:26;24.33;;;9.73;;
22415;SDS011;12204;50.600;4.608;2022-12-10T13:35:44;20.23;;;8.57;;
22415;SDS011;12204;50.600;4.608;2022-12-10T13:41:09;19.83;;;8.43;;
22415;SDS011;12204;50.600;4.608;2022-12-10T13:46:32;20.63;;;8.55;;
22415;SDS011;12204;50.600;4.608;2022-12-10T13:51:54;18.55;;;7.80;;
22415;SDS011;12204;50.600;4.608;2022-12-10T13:57:08;18.98;;;7.30;;
22415;SDS011;12204;50.600;4.608;2022-12-10T14:02:42;14.68;;;7.10;;
22415;SDS011;12204;50.600;4.608;2022-12-10T14:08:40;17.00;;;6.57;;
22415;SDS011;12204;50.600;4.608;2022-12-10T14:13:58;16.23;;;6.80;;
22415;SDS011;12204;50.600;4.608;2022-12-10T14:19:05;13.07;;;5.75;;
22415;SDS011;12204;50.600;4.608;2022-12-10T14:24:29;16.10;;;6.20;;
22415;SDS011;12204;50.600;4.608;2022-12-10T14:29:42;14.43;;;6.18;;
22415;SDS011;12204;50.600;4.608;2022-12-10T14:34:48;12.80;;;5.65;;
22415;SDS011;12204;50.600;4.608;2022-12-10T14:39:58;13.38;;;5.47;;
22415;SDS011;12204;50.600;4.608;2022-12-10T14:45:06;13.65;;;5.60;;
22415;SDS011;12204;50.600;4.608;2022-12-10T14:50:16;13.73;;;5.88;;
22415;SDS011;12204;50.600;4.608;2022-12-10T14:55:21;12.63;;;5.18;;
22415;SDS011;12204;50.600;4.608;2022-12-10T15:00:27;10.23;;;4.88;;
22415;SDS011;12204;50.600;4.608;2022-12-10T15:05:31;11.63;;;5.35;;
22415;SDS011;12204;50.600;4.608;2022-12-10T15:10:37;11.15;;;4.80;;
22415;SDS011;12204;50.600;4.608;2022-12-10T15:15:47;12.30;;;5.28;;
22415;SDS011;12204;50.600;4.608;2022-12-10T15:20:54;9.07;;;4.45;;
22415;SDS011;12204;50.600;4.608;2022-12-10T15:26:17;9.32;;;4.80;;
22415;SDS011;12204;50.600;4.608;2022-12-10T15:31:28;10.02;;;4.30;;
22415;SDS011;12204;50.600;4.608;2022-12-10T15:36:34;8.45;;;4.30;;
22415;SDS011;12204;50.600;4.608;2022-12-10T15:46:48;8.30;;;4.28;;
22415;SDS011;12204;50.600;4.608;2022-12-10T15:51:54;8.85;;;4.28;;
22415;SDS011;12204;50.600;4.608;2022-12-10T15:56:59;8.90;;;4.50;;
22415;SDS011;12204;50.600;4.608;2022-12-10T16:02:23;8.50;;;4.10;;
22415;SDS011;12204;50.600;4.608;2022-12-10T16:07:37;9.23;;;4.43;;
22415;SDS011;12204;50.600;4.608;2022-12-10T16:12:43;7.85;;;4.10;;
22415;SDS011;12204;50.600;4.608;2022-12-10T16:17:51;8.75;;;4.10;;
22415;SDS011;12204;50.600;4.608;2022-12-10T16:22:55;8.07;;;4.13;;
22415;SDS011;12204;50.600;4.608;2022-12-10T16:28:02;7.70;;;3.95;;
22415;SDS011;12204;50.600;4.608;2022-12-10T16:33:06;6.70;;;3.80;;
22415;SDS011;12204;50.600;4.608;2022-12-10T16:38:10;7.75;;;4.18;;
22415;SDS011;12204;50.600;4.608;2022-12-10T16:43:17;8.00;;;3.95;;
22415;SDS011;12204;50.600;4.608;2022-12-10T16:48:24;8.07;;;3.75;;
22415;SDS011;12204;50.600;4.608;2022-12-10T16:53:28;7.15;;;3.90;;
22415;SDS011;12204;50.600;4.608;2022-12-10T16:58:38;7.90;;;4.10;;
22415;SDS011;12204;50.600;4.608;2022-12-10T17:03:42;8.55;;;4.00;;
22415;SDS011;12204;50.600;4.608;2022-12-10T17:08:46;7.00;;;3.78;;
22415;SDS011;12204;50.600;4.608;2022-12-10T17:13:52;9.68;;;4.47;;
22415;SDS011;12204;50.600;4.608;2022-12-10T17:18:56;7.80;;;4.07;;
22415;SDS011;12204;50.600;4.608;2022-12-10T17:24:01;7.72;;;3.75;;
22415;SDS011;12204;50.600;4.608;2022-12-10T17:29:14;7.20;;;3.88;;
22415;SDS011;12204;50.600;4.608;2022-12-10T17:34:22;7.70;;;4.20;;
22415;SDS011;12204;50.600;4.608;2022-12-10T17:39:26;8.10;;;3.83;;
22415;SDS011;12204;50.600;4.608;2022-12-10T17:44:32;7.97;;;4.00;;
22415;SDS011;12204;50.600;4.608;2022-12-10T17:49:36;7.38;;;3.78;;
22415;SDS011;12204;50.600;4.608;2022-12-10T17:54:40;7.55;;;3.80;;
22415;SDS011;12204;50.600;4.608;2022-12-10T17:59:45;7.43;;;3.85;;
22415;SDS011;12204;50.600;4.608;2022-12-10T18:04:49;6.90;;;3.67;;
22415;SDS011;12204;50.600;4.608;2022-12-10T18:09:54;10.25;;;4.05;;
22415;SDS011;12204;50.600;4.608;2022-12-10T18:14:59;6.65;;;3.80;;
22415;SDS011;12204;50.600;4.608;2022-12-10T18:20:03;7.68;;;3.75;;
22415;SDS011;12204;50.600;4.608;2022-12-10T18:25:09;6.50;;;3.80;;
22415;SDS011;12204;50.600;4.608;2022-12-10T18:30:22;7.35;;;4.00;;
22415;SDS011;12204;50.600;4.608;2022-12-10T18:35:27;7.28;;;3.83;;
22415;SDS011;12204;50.600;4.608;2022-12-10T18:40:31;8.55;;;4.03;;
22415;SDS011;12204;50.600;4.608;2022-12-10T18:45:36;7.97;;;4.15;;
22415;SDS011;12204;50.600;4.608;2022-12-10T18:50:39;9.57;;;4.15;;
22415;SDS011;12204;50.600;4.608;2022-12-10T18:55:44;8.77;;;4.00;;
22415;SDS011;12204;50.600;4.608;2022-12-10T19:00:50;7.95;;;3.97;;
22415;SDS011;12204;50.600;4.608;2022-12-10T19:05:53;8.57;;;4.00;;
22415;SDS011;12204;50.600;4.608;2022-12-10T19:10:57;7.97;;;4.07;;
22415;SDS011;12204;50.600;4.608;2022-12-10T19:16:02;8.98;;;3.97;;
22415;SDS011;12204;50.600;4.608;2022-12-10T19:21:07;8.20;;;4.20;;
22415;SDS011;12204;50.600;4.608;2022-12-10T19:26:16;7.28;;;3.72;;
22415;SDS011;12204;50.600;4.608;2022-12-10T19:31:29;8.55;;;4.20;;
22415;SDS011;12204;50.600;4.608;2022-12-10T19:36:33;8.52;;;4.22;;
22415;SDS011;12204;50.600;4.608;2022-12-10T19:41:37;7.65;;;3.83;;
22415;SDS011;12204;50.600;4.608;2022-12-10T19:46:42;7.30;;;4.05;;
22415;SDS011;12204;50.600;4.608;2022-12-10T19:51:47;7.68;;;3.95;;
22415;SDS011;12204;50.600;4.608;2022-12-10T19:56:51;6.88;;;3.78;;
22415;SDS011;12204;50.600;4.608;2022-12-10T20:01:57;24.95;;;3.75;;
22415;SDS011;12204;50.600;4.608;2022-12-10T20:07:01;9.02;;;3.90;;
22415;SDS011;12204;50.600;4.608;2022-12-10T20:12:05;10.13;;;3.95;;
22415;SDS011;12204;50.600;4.608;2022-12-10T20:17:11;10.63;;;3.88;;
22415;SDS011;12204;50.600;4.608;2022-12-10T20:22:20;9.70;;;3.30;;
22415;SDS011;12204;50.600;4.608;2022-12-10T20:27:24;8.18;;;3.70;;
22415;SDS011;12204;50.600;4.608;2022-12-10T20:32:29;7.32;;;3.65;;
22415;SDS011;12204;50.600;4.608;2022-12-10T20:37:33;7.15;;;3.60;;
22415;SDS011;12204;50.600;4.608;2022-12-10T20:42:36;8.35;;;3.33;;
22415;SDS011;12204;50.600;4.608;2022-12-10T20:47:41;6.40;;;3.20;;
22415;SDS011;12204;50.600;4.608;2022-12-10T20:52:45;6.45;;;3.15;;
22415;SDS011;12204;50.600;4.608;2022-12-10T20:57:49;7.00;;;3.28;;
22415;SDS011;12204;50.600;4.608;2022-12-10T21:02:54;7.72;;;3.50;;
22415;SDS011;12204;50.600;4.608;2022-12-10T21:07:58;7.10;;;3.20;;
22415;SDS011;12204;50.600;4.608;2022-12-10T21:13:07;6.95;;;3.10;;
22415;SDS011;12204;50.600;4.608;2022-12-10T21:18:13;6.30;;;3.10;;
22415;SDS011;12204;50.600;4.608;2022-12-10T21:23:18;7.07;;;3.17;;
22415;SDS011;12204;50.600;4.608;2022-12-10T21:28:25;5.25;;;2.67;;
22415;SDS011;12204;50.600;4.608;2022-12-10T21:33:30;6.35;;;2.97;;
22415;SDS011;12204;50.600;4.608;2022-12-10T21:38:40;7.13;;;2.97;;
22415;SDS011;12204;50.600;4.608;2022-12-10T21:43:44;7.82;;;3.25;;
22415;SDS011;12204;50.600;4.608;2022-12-10T21:48:49;9.43;;;3.53;;
22415;SDS011;12204;50.600;4.608;2022-12-10T21:53:52;13.63;;;4.25;;
22415;SDS011;12204;50.600;4.608;2022-12-10T21:58:56;8.35;;;3.63;;
22415;SDS011;12204;50.600;4.608;2022-12-10T22:04:02;10.35;;;3.85;;
22415;SDS011;12204;50.600;4.608;2022-12-10T22:09:06;10.57;;;4.10;;
22415;SDS011;12204;50.600;4.608;2022-12-10T22:14:09;8.93;;;4.18;;
22415;SDS011;12204;50.600;4.608;2022-12-10T22:19:15;9.48;;;4.47;;
22415;SDS011;12204;50.600;4.608;2022-12-10T22:24:18;12.15;;;4.25;;
22415;SDS011;12204;50.600;4.608;2022-12-10T22:29:22;9.60;;;4.53;;
22415;SDS011;12204;50.600;4.608;2022-12-10T22:34:28;9.38;;;4.50;;
22415;SDS011;12204;50.600;4.608;2022-12-10T22:39:32;11.45;;;4.70;;
22415;SDS011;12204;50.600;4.608;2022-12-10T22:44:36;10.85;;;4.90;;
22415;SDS011;12204;50.600;4.608;2022-12-10T22:49:41;11.32;;;4.70;;
22415;SDS011;12204;50.600;4.608;2022-12-10T22:54:45;10.30;;;4.40;;
22415;SDS011;12204;50.600;4.608;2022-12-10T22:59:50;9.95;;;4.28;;
22415;SDS011;12204;50.600;4.608;2022-12-10T23:04:55;10.88;;;4.55;;
22415;SDS011;12204;50.600;4.608;2022-12-10T23:09:59;10.05;;;4.47;;
22415;SDS011;12204;50.600;4.608;2022-12-10T23:15:02;11.35;;;4.47;;
22415;SDS011;12204;50.600;4.608;2022-12-10T23:20:09;9.73;;;4.63;;
22415;SDS011;12204;50.600;4.608;2022-12-10T23:25:13;10.40;;;4.25;;
22415;SDS011;12204;50.600;4.608;2022-12-10T23:30:18;9.88;;;4.38;;
22415;SDS011;12204;50.600;4.608;2022-12-10T23:35:23;10.25;;;4.18;;
22415;SDS011;12204;50.600;4.608;2022-12-10T23:40:27;9.13;;;4.38;;
22415;SDS011;12204;50.600;4.608;2022-12-10T23:45:30;9.90;;;4.40;;
22415;SDS011;12204;50.600;4.608;2022-12-10T23:50:36;8.77;;;4.20;;
22415;SDS011;12204;50.600;4.608;2022-12-10T23:55:40;10.50;;;4.50;;
